createdAt,value
2019-03-25T00:01:33.018Z,51.40
2019-03-25T00:05:37.913Z,51.45
2019-03-25T00:09:42.806Z,53.76
2019-03-25T00:13:47.762Z,51.97
2019-03-25T00:17:52.650Z,50.93
2019-03-25T00:21:58.006Z,51.03
2019-03-25T00:26:02.899Z,51.15
2019-03-25T00:30:07.964Z,51.54
2019-03-25T00:34:12.838Z,51.70
2019-03-25T00:38:17.730Z,51.96
2019-03-25T00:42:23.693Z,52.34
2019-03-25T00:46:28.587Z,52.64
2019-03-25T00:50:33.479Z,53.06
2019-03-25T00:54:49.323Z,53.38
2019-03-25T00:58:44.964Z,53.75
2019-03-25T01:02:49.862Z,53.98
2019-03-25T01:06:54.762Z,54.38
2019-03-25T01:10:59.655Z,54.64
2019-03-25T01:15:06.926Z,55.10
2019-03-25T01:19:11.812Z,55.08
2019-03-25T01:23:16.713Z,55.39
2019-03-25T01:27:21.604Z,55.74
2019-03-25T01:31:26.495Z,55.76
2019-03-25T01:35:31.398Z,55.92
2019-03-25T01:39:36.306Z,56.04
2019-03-25T01:43:41.194Z,56.25
2019-03-25T01:47:46.108Z,56.41
2019-03-25T01:51:51.002Z,56.49
2019-03-25T01:55:55.896Z,56.58
2019-03-25T02:00:00.790Z,56.69
2019-03-25T02:04:05.685Z,56.89
2019-03-25T02:08:10.575Z,57.09
2019-03-25T02:12:15.473Z,57.05
2019-03-25T02:16:20.360Z,57.16
2019-03-25T02:20:26.787Z,57.28
2019-03-25T02:24:32.898Z,57.46
2019-03-25T02:28:37.788Z,57.61
2019-03-25T02:32:42.688Z,57.75
2019-03-25T02:36:47.586Z,57.57
2019-03-25T02:40:52.478Z,57.70
2019-03-25T02:44:57.380Z,57.78
2019-03-25T02:49:02.259Z,58.15
2019-03-25T02:53:07.154Z,58.20
2019-03-25T02:57:12.055Z,58.39
2019-03-25T03:01:16.991Z,58.66
2019-03-25T03:05:21.854Z,58.75
2019-03-25T03:09:26.742Z,59.09
2019-03-25T03:13:31.637Z,59.04
2019-03-25T03:17:36.539Z,59.27
2019-03-25T03:21:41.499Z,58.93
2019-03-25T03:25:56.965Z,58.81
2019-03-25T03:29:52.986Z,58.91
2019-03-25T03:33:57.903Z,58.68
2019-03-25T03:38:02.782Z,58.71
2019-03-25T03:42:07.749Z,59.16
2019-03-25T03:46:12.646Z,59.45
2019-03-25T03:50:25.073Z,59.35
2019-03-25T03:54:29.956Z,59.17
2019-03-25T03:58:35.033Z,59.08
2019-03-25T04:02:40.015Z,59.39
2019-03-25T04:06:44.888Z,59.77
2019-03-25T04:10:49.789Z,59.99
2019-03-25T04:14:54.685Z,60.30
2019-03-25T04:18:59.570Z,60.51
2019-03-25T04:23:04.470Z,60.78
2019-03-25T04:27:09.367Z,61.11
2019-03-25T04:31:14.264Z,61.61
2019-03-25T04:35:19.149Z,62.33
2019-03-25T04:39:24.042Z,61.86
2019-03-25T04:43:28.946Z,61.54
2019-03-25T04:47:33.841Z,60.75
2019-03-25T04:51:38.737Z,60.34
2019-03-25T04:55:43.635Z,59.93
2019-03-25T04:59:48.522Z,59.64
2019-03-25T05:03:54.490Z,59.22
2019-03-25T05:07:59.384Z,58.72
2019-03-25T05:12:04.284Z,58.35
2019-03-25T05:16:09.180Z,57.88
2019-03-25T05:20:14.066Z,57.75
2019-03-25T05:24:18.969Z,57.55
2019-03-25T05:28:23.865Z,57.42
2019-03-25T05:32:28.760Z,57.07
2019-03-25T05:36:33.666Z,56.93
2019-03-25T05:40:38.553Z,56.58
2019-03-25T05:44:43.456Z,56.76
2019-03-25T05:48:48.347Z,56.89
2019-03-25T05:52:53.250Z,56.97
2019-03-25T05:57:02.758Z,57.77
2019-03-25T06:01:04.917Z,57.19
2019-03-25T06:05:09.868Z,56.85
2019-03-25T06:09:14.768Z,57.19
2019-03-25T06:13:19.664Z,57.08
2019-03-25T06:17:24.563Z,57.21
2019-03-25T06:21:29.457Z,60.68
2019-03-25T06:25:34.350Z,57.71
2019-03-25T06:29:39.244Z,56.78
2019-03-25T06:33:44.150Z,57.10
2019-03-25T06:37:49.040Z,57.78
2019-03-25T06:41:53.941Z,58.30
2019-03-25T06:45:58.899Z,58.36
2019-03-25T06:50:06.000Z,57.62
2019-03-25T06:54:10.885Z,57.77
2019-03-25T06:58:15.789Z,57.69
2019-03-25T07:02:20.684Z,57.54
2019-03-25T07:06:25.572Z,57.32
2019-03-25T07:10:32.301Z,57.01
2019-03-25T07:14:37.190Z,58.38
2019-03-25T07:18:42.086Z,59.88
2019-03-25T07:22:46.982Z,62.72
2019-03-25T07:26:51.887Z,62.72
2019-03-25T07:30:56.767Z,57.84
2019-03-25T07:35:01.665Z,59.92
2019-03-25T07:39:07.130Z,60.96
2019-03-25T07:43:12.028Z,61.43
2019-03-25T07:47:16.928Z,62.67
2019-03-25T07:51:21.812Z,62.67
2019-03-25T07:55:26.726Z,62.68
2019-03-25T07:59:31.653Z,62.52
2019-03-25T08:03:36.570Z,62.50
2019-03-25T08:07:41.447Z,61.70
2019-03-25T08:11:46.391Z,61.86
2019-03-25T08:15:51.255Z,61.39
2019-03-25T08:19:56.116Z,60.05
2019-03-25T08:24:01.013Z,59.49
2019-03-25T08:28:05.988Z,59.73
2019-03-25T08:32:10.874Z,60.19
2019-03-25T08:36:15.766Z,59.83
2019-03-25T08:40:20.671Z,58.75
2019-03-25T08:44:25.565Z,59.12
2019-03-25T08:48:30.464Z,57.82
2019-03-25T08:52:35.356Z,56.15
2019-03-25T08:56:41.280Z,56.89
2019-03-25T09:00:46.173Z,58.36
2019-03-25T09:04:51.073Z,60.55
2019-03-25T09:08:56.799Z,59.62
2019-03-25T09:13:01.714Z,58.26
2019-03-25T09:17:06.880Z,57.76
2019-03-25T09:21:12.726Z,54.32
2019-03-25T09:25:17.973Z,55.86
2019-03-25T09:29:22.871Z,53.54
2019-03-25T09:33:27.765Z,53.33
2019-03-25T09:37:32.655Z,51.07
2019-03-25T09:41:38.616Z,51.21
2019-03-25T09:45:43.512Z,48.15
2019-03-25T09:49:49.388Z,48.03
2019-03-25T09:53:55.256Z,50.43
2019-03-25T09:58:00.152Z,54.21
2019-03-25T10:02:05.191Z,55.73
2019-03-25T10:06:10.090Z,56.29
2019-03-25T10:10:15.120Z,56.77
2019-03-25T10:14:20.018Z,55.42
2019-03-25T10:18:24.921Z,56.71
2019-03-25T10:22:29.818Z,57.00
2019-03-25T10:26:34.703Z,55.43
2019-03-25T10:30:39.659Z,56.01
2019-03-25T10:34:45.917Z,58.16
2019-03-25T10:38:50.814Z,58.28
2019-03-25T10:42:55.705Z,58.32
2019-03-25T10:47:00.635Z,57.59
2019-03-25T10:51:05.603Z,57.41
2019-03-25T10:55:11.734Z,55.88
2019-03-25T10:59:17.703Z,54.58
2019-03-25T11:03:22.605Z,57.87
2019-03-25T11:07:29.463Z,58.27
2019-03-25T11:11:34.094Z,59.15
2019-03-25T11:15:38.992Z,60.61
2019-03-25T11:19:43.891Z,62.38
2019-03-25T11:23:48.787Z,61.68
2019-03-25T11:27:54.591Z,61.28
2019-03-25T11:31:59.879Z,61.53
2019-03-25T11:36:05.112Z,59.97
2019-03-25T11:40:11.232Z,58.99
2019-03-25T11:44:16.135Z,56.02
2019-03-25T11:48:21.022Z,57.83
2019-03-25T11:52:25.903Z,57.33
2019-03-25T11:56:30.788Z,58.11
2019-03-25T12:00:36.745Z,59.78
2019-03-25T12:04:41.635Z,59.72
2019-03-25T12:08:46.533Z,59.79
2019-03-25T12:12:51.434Z,60.63
2019-03-25T12:16:56.324Z,60.84
2019-03-25T12:21:01.208Z,61.07
2019-03-25T12:25:07.713Z,60.99
2019-03-25T12:29:12.604Z,58.50
2019-03-25T12:33:17.508Z,57.95
2019-03-25T12:37:22.387Z,57.21
2019-03-25T12:41:27.343Z,55.28
2019-03-25T12:45:32.243Z,56.19
2019-03-25T12:49:37.139Z,55.79
2019-03-25T12:53:42.029Z,55.42
2019-03-25T12:57:47.887Z,54.15
2019-03-25T13:01:53.507Z,54.88
2019-03-25T13:05:59.447Z,57.29
2019-03-25T13:10:05.879Z,58.88
2019-03-25T13:14:11.847Z,60.22
2019-03-25T13:18:16.731Z,61.42
2019-03-25T13:22:21.622Z,60.87
2019-03-25T13:26:27.597Z,60.63
2019-03-25T13:30:32.480Z,60.05
2019-03-25T13:34:38.439Z,60.58
2019-03-25T13:38:43.329Z,58.56
2019-03-25T13:42:48.379Z,57.73
2019-03-25T13:46:53.275Z,58.21
2019-03-25T13:50:58.170Z,59.79
2019-03-25T13:55:03.063Z,60.69
2019-03-25T13:59:07.954Z,60.38
2019-03-25T14:03:12.833Z,60.59
2019-03-25T14:07:17.723Z,61.08
2019-03-25T14:11:22.618Z,61.49
2019-03-25T14:15:27.511Z,61.29
2019-03-25T14:19:32.415Z,59.23
2019-03-25T14:23:37.282Z,58.61
2019-03-25T14:27:42.185Z,58.64
2019-03-25T14:31:47.062Z,56.02
2019-03-25T14:35:51.956Z,56.90
2019-03-25T14:39:57.922Z,55.78
2019-03-25T14:44:02.944Z,53.40
2019-03-25T14:48:07.821Z,55.21
2019-03-25T14:52:12.711Z,55.93
2019-03-25T14:56:17.614Z,55.98
2019-03-25T15:00:25.398Z,56.95
2019-03-25T15:04:29.103Z,57.36
2019-03-25T15:08:33.994Z,57.77
2019-03-25T15:12:38.879Z,58.89
2019-03-25T15:16:43.769Z,61.02
2019-03-25T15:20:48.664Z,62.34
2019-03-25T15:24:53.632Z,61.88
2019-03-25T15:28:58.522Z,61.26
2019-03-25T15:33:03.402Z,61.03
2019-03-25T15:37:08.305Z,61.27
2019-03-25T15:41:13.267Z,60.74
2019-03-25T15:45:18.168Z,61.29
2019-03-25T15:49:23.067Z,61.71
2019-03-25T15:53:28.836Z,62.10
2019-03-25T15:57:33.803Z,61.55
2019-03-25T16:01:38.705Z,62.78
2019-03-25T16:05:43.594Z,62.97
2019-03-25T16:09:48.486Z,61.03
2019-03-25T16:13:53.368Z,61.19
2019-03-25T16:17:58.259Z,61.77
2019-03-25T16:22:03.163Z,61.01
2019-03-25T16:26:08.046Z,61.51
2019-03-25T16:30:13.302Z,60.68
2019-03-25T16:34:23.098Z,61.56
2019-03-25T16:38:27.953Z,62.23
2019-03-25T16:42:32.847Z,62.66
2019-03-25T16:46:37.740Z,61.12
2019-03-25T16:50:42.635Z,61.19
2019-03-25T16:54:47.525Z,62.49
2019-03-25T16:58:52.411Z,64.31
2019-03-25T17:02:57.304Z,65.79
2019-03-25T17:07:02.197Z,66.50
2019-03-25T17:11:08.192Z,67.07
2019-03-25T17:15:13.210Z,67.80
2019-03-25T17:19:18.094Z,67.88
2019-03-25T17:23:22.984Z,67.97
2019-03-25T17:27:27.879Z,67.58
2019-03-25T17:31:32.771Z,67.41
2019-03-25T17:35:37.665Z,67.73
2019-03-25T17:39:42.552Z,68.26
2019-03-25T17:43:47.434Z,68.03
2019-03-25T17:47:52.321Z,67.84
2019-03-25T17:51:57.220Z,67.97
2019-03-25T17:56:02.097Z,67.90
2019-03-25T18:00:10.000Z,67.58
2019-03-25T18:04:14.955Z,67.61
2019-03-25T18:08:19.860Z,67.87
2019-03-25T18:12:24.755Z,67.83
2019-03-25T18:16:29.713Z,67.93
2019-03-25T18:20:34.612Z,68.49
2019-03-25T18:24:39.501Z,69.12
2019-03-25T18:28:44.400Z,69.70
2019-03-25T18:32:49.298Z,69.53
2019-03-25T18:36:54.187Z,68.76
2019-03-25T18:40:59.081Z,68.83
2019-03-25T18:45:04.954Z,69.02
2019-03-25T18:49:09.850Z,69.28
2019-03-25T18:53:14.743Z,69.67
2019-03-25T18:57:19.648Z,69.86
2019-03-25T19:01:24.694Z,70.43
2019-03-25T19:05:29.577Z,71.03
2019-03-25T19:09:35.536Z,71.33
2019-03-25T19:13:40.438Z,71.62
2019-03-25T19:17:45.321Z,71.70
2019-03-25T19:21:50.242Z,71.63
2019-03-25T19:25:55.113Z,71.98
2019-03-25T19:30:00.029Z,72.22
2019-03-25T19:34:04.890Z,72.15
2019-03-25T19:38:09.780Z,72.42
2019-03-25T19:42:14.671Z,72.44
2019-03-25T19:46:19.573Z,72.13
2019-03-25T19:50:24.452Z,71.85
2019-03-25T19:54:29.344Z,71.90
2019-03-25T19:58:34.245Z,74.20
2019-03-25T20:02:39.188Z,70.76
2019-03-25T20:06:44.075Z,70.07
2019-03-25T20:10:48.948Z,70.29
2019-03-25T20:14:53.860Z,71.33
2019-03-25T20:18:58.775Z,71.94
2019-03-25T20:23:03.974Z,72.32
2019-03-25T20:27:08.821Z,73.49
2019-03-25T20:31:13.715Z,74.70
2019-03-25T20:35:18.606Z,75.38
2019-03-25T20:39:23.549Z,75.49
2019-03-25T20:43:28.395Z,75.41
2019-03-25T20:47:33.288Z,76.07
2019-03-25T20:51:38.186Z,75.92
2019-03-25T20:55:43.076Z,75.63
2019-03-25T20:59:49.031Z,75.22
2019-03-25T21:03:53.906Z,75.26
2019-03-25T21:07:58.828Z,75.32
2019-03-25T21:12:03.690Z,75.78
2019-03-25T21:16:08.577Z,75.76
2019-03-25T21:20:13.523Z,75.83
2019-03-25T21:24:18.410Z,77.05
2019-03-25T21:28:24.367Z,75.85
2019-03-25T21:32:29.272Z,74.08
2019-03-25T21:36:34.152Z,73.69
2019-03-25T21:40:39.052Z,73.70
2019-03-25T21:44:43.948Z,73.49
2019-03-25T21:48:48.895Z,73.54
2019-03-25T21:52:54.847Z,73.40
2019-03-25T21:56:59.781Z,73.37
2019-03-25T22:01:04.611Z,73.19
2019-03-25T22:05:09.491Z,73.00
2019-03-25T22:09:14.381Z,72.72
2019-03-25T22:13:19.274Z,72.58
2019-03-25T22:17:24.162Z,72.50
2019-03-25T22:21:29.620Z,72.21
2019-03-25T22:25:34.511Z,72.09
2019-03-25T22:29:39.407Z,71.82
2019-03-25T22:33:44.289Z,71.89
2019-03-25T22:37:49.186Z,72.03
2019-03-25T22:41:55.049Z,71.93
2019-03-25T22:45:59.926Z,72.00
2019-03-25T22:50:07.325Z,71.88
2019-03-25T22:54:13.186Z,71.50
2019-03-25T22:58:18.077Z,71.15
2019-03-25T23:02:22.971Z,71.10
2019-03-25T23:06:27.850Z,70.94
2019-03-25T23:10:32.738Z,71.27
2019-03-25T23:14:37.634Z,71.49
2019-03-25T23:18:42.523Z,71.45
2019-03-25T23:22:47.427Z,71.41
2019-03-25T23:26:52.318Z,71.56
2019-03-25T23:30:57.203Z,71.41
2019-03-25T23:35:02.098Z,71.45
2019-03-25T23:39:07.828Z,71.73
2019-03-25T23:43:14.293Z,71.83
2019-03-25T23:47:19.192Z,70.98
2019-03-25T23:51:24.129Z,70.82
2019-03-25T23:55:29.022Z,70.46
2019-03-25T23:59:33.916Z,70.20
